createdAt,value
2017-08-14T00:01:06.161Z,21.43
2017-08-14T00:03:31.261Z,21.47
2017-08-14T00:05:55.425Z,21.54
2017-08-14T00:08:21.575Z,21.63
2017-08-14T00:10:37.261Z,21.6
2017-08-14T00:13:02.391Z,21.65
2017-08-14T00:15:26.455Z,21.4
2017-08-14T00:17:51.527Z,21.22
2017-08-14T00:20:17.656Z,21.28
2017-08-14T00:22:41.746Z,21.14
2017-08-14T00:25:14.763Z,21.14
2017-08-14T00:27:38.800Z,21.1
2017-08-14T00:30:02.800Z,21.07
2017-08-14T00:32:28.012Z,20.64
2017-08-14T00:34:53.115Z,20.42
2017-08-14T00:37:19.261Z,20.34
2017-08-14T00:39:43.419Z,20.36
2017-08-14T00:42:07.509Z,20.59
2017-08-14T00:44:31.496Z,20.49
2017-08-14T00:46:56.595Z,20.37
2017-08-14T00:49:20.672Z,20.4
2017-08-14T00:51:45.775Z,20.6
2017-08-14T00:54:16.721Z,20.39
2017-08-14T00:56:18.669Z,20.7
2017-08-14T00:58:42.704Z,20.86
2017-08-14T01:01:05.119Z,20.67
2017-08-14T01:03:20.646Z,20.6
2017-08-14T01:05:22.473Z,20.4
2017-08-14T01:07:45.576Z,20.1
2017-08-14T01:10:09.489Z,20.33
2017-08-14T01:12:33.479Z,20.7
2017-08-14T01:15:04.412Z,20.74
2017-08-14T01:17:14.836Z,20.64
2017-08-14T01:19:38.831Z,20.56
2017-08-14T01:22:02.843Z,20.7
2017-08-14T01:24:28.863Z,20.34
2017-08-14T01:26:52.942Z,20.6
2017-08-14T01:29:16.936Z,20.77
2017-08-14T01:31:47.778Z,20.58
2017-08-14T01:34:11.694Z,20.89
2017-08-14T01:36:35.620Z,20.52
2017-08-14T01:38:59.706Z,20.32
2017-08-14T01:41:24.805Z,20.37
2017-08-14T01:43:48.905Z,20.22
2017-08-14T01:46:14.925Z,20.17
2017-08-14T01:48:24.810Z,20.49
2017-08-14T01:50:41.472Z,20.14
2017-08-14T01:53:05.545Z,20.11
2017-08-14T01:55:29.638Z,20.34
2017-08-14T01:57:55.660Z,20.46
2017-08-14T02:00:26.196Z,20.27
2017-08-14T02:02:50.159Z,20.33
2017-08-14T02:05:16.110Z,20.44
2017-08-14T02:07:40.040Z,20.07
2017-08-14T02:10:03.975Z,19.89
2017-08-14T02:12:28.866Z,20.03
2017-08-14T02:14:52.858Z,19.67
2017-08-14T02:17:24.712Z,19.89
2017-08-14T02:19:48.669Z,19.97
2017-08-14T02:22:12.636Z,19.96
2017-08-14T02:24:36.523Z,20.17
2017-08-14T02:27:00.543Z,20.32
2017-08-14T02:29:24.439Z,19.99
2017-08-14T02:31:48.343Z,20.11
2017-08-14T02:34:13.383Z,20.42
2017-08-14T02:36:44.231Z,20.18
2017-08-14T02:39:08.196Z,20.29
2017-08-14T02:41:32.153Z,20.24
2017-08-14T02:43:56.067Z,20.6
2017-08-14T02:46:20.027Z,20.48
2017-08-14T02:48:43.944Z,20.58
2017-08-14T02:51:08.007Z,20.5
2017-08-14T02:53:31.970Z,20.52
2017-08-14T02:55:47.475Z,20.39
2017-08-14T02:58:11.424Z,20.36
2017-08-14T03:00:35.408Z,20.24
2017-08-14T03:02:59.377Z,20.19
2017-08-14T03:05:30.236Z,20.37
2017-08-14T03:07:54.203Z,20.33
2017-08-14T03:10:18.134Z,20.4
2017-08-14T03:12:42.087Z,20.29
2017-08-14T03:15:07.218Z,20.21
2017-08-14T03:17:31.234Z,20.34
2017-08-14T03:19:55.244Z,20.64
2017-08-14T03:22:19.232Z,20.5
2017-08-14T03:24:50.268Z,20.58
2017-08-14T03:27:14.220Z,20.18
2017-08-14T03:29:38.189Z,20.21
2017-08-14T03:32:02.098Z,20.14
2017-08-14T03:34:26.082Z,20.21
2017-08-14T03:36:35.952Z,20.34
2017-08-14T03:38:59.922Z,20.17
2017-08-14T03:41:23.984Z,19.92
2017-08-14T03:43:47.947Z,20.08
2017-08-14T03:46:12.966Z,20.12
2017-08-14T03:48:36.958Z,20.08
2017-08-14T03:51:00.936Z,19.59
2017-08-14T03:53:24.930Z,19.67
2017-08-14T03:55:48.840Z,19.64
2017-08-14T03:58:12.734Z,19.75
2017-08-14T04:00:44.329Z,19.93
2017-08-14T04:03:08.318Z,20.17
2017-08-14T04:05:32.245Z,20.02
2017-08-14T04:07:56.263Z,20
2017-08-14T04:11:56.400Z,19.71
2017-08-14T04:14:21.401Z,19.71
2017-08-14T04:15:57.674Z,19.79
2017-08-14T04:18:21.668Z,19.84
2017-08-14T04:20:52.579Z,19.29
2017-08-14T04:23:16.509Z,19.71
2017-08-14T04:25:40.439Z,19.7
2017-08-14T04:28:04.424Z,19.7
2017-08-14T04:30:29.433Z,19.71
2017-08-14T04:32:30.775Z,19.9
2017-08-14T04:34:55.782Z,19.72
2017-08-14T04:37:28.681Z,19.84
2017-08-14T04:39:30.530Z,19.72
2017-08-14T04:41:31.856Z,19.87
2017-08-14T04:43:42.999Z,20.18
2017-08-14T04:45:58.592Z,19.87
2017-08-14T04:48:22.612Z,20.07
2017-08-14T04:50:38.202Z,19.89
2017-08-14T04:52:41.627Z,20.5
2017-08-14T04:55:20.429Z,20.75
2017-08-14T04:57:44.422Z,21.1
2017-08-14T05:00:08.488Z,21.47
2017-08-14T05:02:18.393Z,22.38
2017-08-14T05:04:19.750Z,23.25
2017-08-14T05:06:51.652Z,24.26
2017-08-14T05:09:07.459Z,24.61
2017-08-14T05:11:31.822Z,24.81
2017-08-14T05:13:56.196Z,23.89
2017-08-14T05:16:20.612Z,24.69
2017-08-14T05:18:45.111Z,24.14
2017-08-14T05:21:09.587Z,23.74
2017-08-14T05:23:34.083Z,23.32
2017-08-14T05:25:58.468Z,22.78
2017-08-14T05:28:22.873Z,22.55
2017-08-14T05:30:47.246Z,22.91
2017-08-14T05:33:03.125Z,22.1
2017-08-14T05:35:19.016Z,22
2017-08-14T05:37:43.319Z,22.19
2017-08-14T05:40:07.602Z,22.44
2017-08-14T05:42:33.937Z,22.8
2017-08-14T05:44:59.250Z,22.23
2017-08-14T05:48:59.174Z,22.61
2017-08-14T05:51:23.417Z,22.33
2017-08-14T05:55:15.357Z,21.8
2017-08-14T05:57:39.528Z,22.16
2017-08-14T06:00:03.689Z,22.31
2017-08-14T06:02:27.834Z,21.83
2017-08-14T06:04:52.070Z,22.52
2017-08-14T06:07:16.227Z,21.75
2017-08-14T06:09:41.457Z,21.84
2017-08-14T06:12:06.640Z,22.03
2017-08-14T06:14:32.890Z,22.25
2017-08-14T06:16:57.086Z,22.51
2017-08-14T06:19:21.352Z,22.16
2017-08-14T06:21:45.596Z,22.63
2017-08-14T06:24:24.766Z,23.48
2017-08-14T06:26:49.031Z,23.55
2017-08-14T06:29:13.310Z,24.14
2017-08-14T06:31:37.653Z,23.74
2017-08-14T06:34:03.980Z,23.84
2017-08-14T06:36:28.374Z,23.94
2017-08-14T06:40:28.952Z,25.7
2017-08-14T06:42:53.406Z,26.73
2017-08-14T06:45:17.906Z,26.68
2017-08-14T06:47:42.404Z,26.31
2017-08-14T06:50:07.074Z,25.66
2017-08-14T06:52:31.875Z,26.45
2017-08-14T06:54:49.192Z,26.1
2017-08-14T06:57:14.951Z,25.85
2017-08-14T07:01:15.833Z,25.3
2017-08-14T07:03:40.514Z,26.52
2017-08-14T07:06:05.059Z,25
2017-08-14T07:08:31.701Z,25.4
2017-08-14T07:11:04.189Z,25.95
2017-08-14T07:13:05.684Z,25.78
2017-08-14T07:15:30.282Z,25.52
2017-08-14T07:17:54.883Z,25.74
2017-08-14T07:20:19.532Z,25.52
2017-08-14T07:22:43.990Z,25.4
2017-08-14T07:25:16.589Z,25.8
2017-08-14T07:27:32.699Z,26.04
2017-08-14T07:29:57.301Z,26.46
2017-08-14T07:32:21.837Z,27.55
2017-08-14T07:34:46.571Z,28.18
2017-08-14T07:37:20.077Z,28.35
2017-08-14T07:38:56.419Z,28.25
2017-08-14T07:41:12.774Z,28.2
2017-08-14T07:43:37.639Z,27.85
2017-08-14T07:46:02.439Z,28.37
2017-08-14T07:48:35.318Z,28.92
2017-08-14T07:50:51.644Z,28.71
2017-08-14T07:53:16.484Z,28.7
2017-08-14T07:55:41.332Z,29.5
2017-08-14T07:57:57.735Z,30.71
2017-08-14T08:00:30.306Z,30.69
2017-08-14T08:02:55.280Z,32.01
2017-08-14T08:05:20.251Z,31.55
2017-08-14T08:07:36.738Z,33.84
2017-08-14T08:09:53.324Z,36.26
2017-08-14T08:12:18.518Z,35.74
2017-08-14T08:14:43.836Z,35.37
2017-08-14T08:17:09.222Z,35.94
2017-08-14T08:19:35.004Z,38.34
2017-08-14T08:22:00.718Z,38.47
2017-08-14T08:24:26.353Z,38.09
2017-08-14T08:26:52.043Z,35.53
2017-08-14T08:29:17.796Z,37
2017-08-14T08:31:43.605Z,39.91
2017-08-14T08:34:09.281Z,40.29
2017-08-14T08:36:34.964Z,40.08
2017-08-14T08:39:01.763Z,40.74
2017-08-14T08:41:04.820Z,38.79
2017-08-14T08:43:30.687Z,38.13
2017-08-14T08:45:56.486Z,36.14
2017-08-14T08:48:22.359Z,38.77
2017-08-14T08:50:47.962Z,39.97
2017-08-14T08:53:13.755Z,38.25
2017-08-14T08:55:41.560Z,38.51
2017-08-14T08:58:07.400Z,38.27
2017-08-14T09:00:33.113Z,37.44
2017-08-14T09:02:58.740Z,38.6
2017-08-14T09:05:24.418Z,38.48
2017-08-14T09:07:50.139Z,37.86
2017-08-14T09:10:15.849Z,37.44
2017-08-14T09:12:41.533Z,36.55
2017-08-14T09:15:07.283Z,38.05
2017-08-14T09:17:32.993Z,35.45
2017-08-14T09:19:58.614Z,37.03
2017-08-14T09:22:25.268Z,35.76
2017-08-14T09:24:50.904Z,34.51
2017-08-14T09:27:16.560Z,34.53
2017-08-14T09:29:42.151Z,35.03
2017-08-14T09:32:07.619Z,35.3
2017-08-14T09:34:33.149Z,32.71
2017-08-14T09:36:59.639Z,33.79
2017-08-14T09:39:25.063Z,34.26
2017-08-14T09:41:50.540Z,35.1
2017-08-14T09:44:16.035Z,34.86
2017-08-14T09:46:41.474Z,35.19
2017-08-14T09:49:06.855Z,34.93
2017-08-14T09:51:32.293Z,35.98
2017-08-14T09:53:58.031Z,36
2017-08-14T09:56:23.517Z,35.1
2017-08-14T09:58:49.073Z,36.2
2017-08-14T10:01:14.737Z,35.72
2017-08-14T10:03:25.481Z,35.03
2017-08-14T10:05:51.721Z,34.98
2017-08-14T10:08:17.095Z,34.75
2017-08-14T10:10:44.035Z,34.44
2017-08-14T10:13:09.390Z,34.11
2017-08-14T10:15:35.165Z,33.91
2017-08-14T10:18:00.838Z,34.33
2017-08-14T10:20:26.421Z,34.1
2017-08-14T10:22:51.791Z,34.1
2017-08-14T10:25:17.335Z,33.92
2017-08-14T10:27:43.825Z,34.28
2017-08-14T10:30:09.210Z,33.95
2017-08-14T10:31:45.054Z,34.58
2017-08-14T10:34:10.535Z,35.1
2017-08-14T10:36:36.063Z,33.7
2017-08-14T10:39:01.573Z,33.66
2017-08-14T10:41:26.964Z,34.44
2017-08-14T10:43:52.483Z,33.69
2017-08-14T10:46:17.786Z,34.1
2017-08-14T10:48:43.205Z,33.72
2017-08-14T10:51:09.619Z,33.22
2017-08-14T10:53:35.025Z,33.97
2017-08-14T10:56:00.291Z,33.33
2017-08-14T10:58:25.684Z,32.93
2017-08-14T11:00:50.969Z,32.26
2017-08-14T11:03:16.338Z,33.31
2017-08-14T11:05:41.666Z,32.3
2017-08-14T11:08:07.292Z,32.83
2017-08-14T11:10:32.831Z,32.6
2017-08-14T11:12:57.907Z,32.6
2017-08-14T11:15:23.082Z,32.04
2017-08-14T11:17:48.268Z,31.82
2017-08-14T11:20:13.411Z,31.1
2017-08-14T11:22:38.639Z,31.59
2017-08-14T11:25:03.711Z,31.66
2017-08-14T11:27:28.832Z,31.72
2017-08-14T11:29:53.998Z,32.46
2017-08-14T11:32:20.233Z,32.3
2017-08-14T11:34:45.431Z,32.19
2017-08-14T11:37:10.564Z,31.57
2017-08-14T11:39:27.154Z,31.42
2017-08-14T11:41:03.589Z,31.35
2017-08-14T11:43:28.625Z,30.69
2017-08-14T11:45:53.582Z,30.21
2017-08-14T11:48:18.650Z,30.85
2017-08-14T11:50:43.630Z,31.08
2017-08-14T11:53:08.791Z,30.7
2017-08-14T11:55:33.799Z,30.05
2017-08-14T11:57:58.776Z,29.73
2017-08-14T12:00:23.730Z,30.14
2017-08-14T12:02:48.730Z,30.44
2017-08-14T12:05:13.678Z,30.11
2017-08-14T12:07:38.640Z,30.13
2017-08-14T12:10:03.635Z,30.27
2017-08-14T12:12:28.553Z,30.33
2017-08-14T12:14:53.436Z,30.4
2017-08-14T12:17:18.367Z,30.65
2017-08-14T12:19:43.253Z,30.98
2017-08-14T12:22:08.207Z,31.37
2017-08-14T12:24:33.150Z,30.26
2017-08-14T12:26:58.355Z,30.77
2017-08-14T12:29:32.418Z,31.52
2017-08-14T12:31:57.494Z,31.26
2017-08-14T12:34:22.845Z,31.05
2017-08-14T12:36:47.512Z,30.91
2017-08-14T12:39:04.124Z,31.04
2017-08-14T12:41:29.307Z,30.67
2017-08-14T12:43:54.352Z,30.21
2017-08-14T12:46:19.532Z,30.35
2017-08-14T12:48:45.021Z,31.17
2017-08-14T12:51:10.028Z,31.33
2017-08-14T12:53:41.820Z,30.78
2017-08-14T12:56:06.929Z,30.93
2017-08-14T12:59:19.736Z,30.83
2017-08-14T13:01:44.894Z,31.23
2017-08-14T13:04:10.144Z,30.55
2017-08-14T13:06:42.973Z,30.26
2017-08-14T13:09:07.901Z,31.36
2017-08-14T13:11:33.194Z,32.07
2017-08-14T13:13:58.131Z,31.18
2017-08-14T13:16:23.150Z,31.57
2017-08-14T13:18:48.146Z,31.29
2017-08-14T13:20:24.562Z,30.95
2017-08-14T13:24:29.051Z,30.55
2017-08-14T13:27:09.456Z,31.2
2017-08-14T13:29:34.598Z,30.29
2017-08-14T13:31:59.858Z,30.59
2017-08-14T13:34:25.060Z,31.37
2017-08-14T13:36:50.002Z,31.08
2017-08-14T13:39:22.029Z,30.65
2017-08-14T13:41:47.142Z,30.36
2017-08-14T13:44:12.389Z,30.17
2017-08-14T13:46:37.863Z,30.73
2017-08-14T13:49:02.774Z,30.69
2017-08-14T13:51:27.757Z,30.91
2017-08-14T13:53:53.345Z,30.32
2017-08-14T13:56:18.263Z,30.38
2017-08-14T13:58:43.202Z,30.17
2017-08-14T14:01:09.153Z,30.43
2017-08-14T14:03:33.961Z,30.89
2017-08-14T14:05:59.943Z,31.08
2017-08-14T14:08:02.044Z,31.41
2017-08-14T14:10:29.205Z,31.74
2017-08-14T14:12:54.130Z,32.07
2017-08-14T14:15:19.157Z,31.18
2017-08-14T14:17:44.204Z,31.47
2017-08-14T14:20:09.249Z,31.44
2017-08-14T14:22:34.223Z,31.08
2017-08-14T14:24:59.221Z,30.86
2017-08-14T14:27:24.217Z,30.91
2017-08-14T14:29:49.316Z,30.8
2017-08-14T14:32:14.233Z,30.69
2017-08-14T14:34:40.379Z,30.81
2017-08-14T14:37:05.264Z,30.71
2017-08-14T14:39:31.386Z,31.25
2017-08-14T14:41:56.320Z,31.45
2017-08-14T14:44:21.373Z,30.78
2017-08-14T14:46:46.225Z,30.74
2017-08-14T14:49:13.119Z,31.2
2017-08-14T14:51:38.110Z,31.37
2017-08-14T14:53:55.665Z,30.98
2017-08-14T14:56:21.707Z,31
2017-08-14T14:58:46.602Z,31.22
2017-08-14T15:01:12.626Z,30.83
2017-08-14T15:03:38.425Z,31.04
2017-08-14T15:06:03.423Z,30.81
2017-08-14T15:08:28.314Z,30.78
2017-08-14T15:10:55.387Z,31.04
2017-08-14T15:13:20.361Z,31.33
2017-08-14T15:15:45.557Z,31.33
2017-08-14T15:18:10.396Z,31.07
2017-08-14T15:20:35.498Z,31.04
2017-08-14T15:23:00.429Z,30.92
2017-08-14T15:25:33.400Z,31.37
2017-08-14T15:27:58.343Z,30.85
2017-08-14T15:30:23.291Z,31.13
2017-08-14T15:32:48.257Z,31.44
2017-08-14T15:35:13.338Z,31.36
2017-08-14T15:37:15.337Z,31.39
2017-08-14T15:39:40.331Z,31.47
2017-08-14T15:42:05.306Z,31.28
2017-08-14T15:44:30.322Z,31.18
2017-08-14T15:46:55.293Z,30.81
2017-08-14T15:49:20.186Z,30.88
2017-08-14T15:51:22.328Z,30.73
2017-08-14T15:53:47.241Z,30.74
2017-08-14T15:56:12.085Z,30.58
2017-08-14T15:58:37.155Z,30.24
2017-08-14T16:01:01.991Z,30.43
2017-08-14T16:03:26.841Z,30.48
2017-08-14T16:05:51.665Z,30.52
2017-08-14T16:08:01.912Z,30.49
2017-08-14T16:10:26.820Z,30.7
2017-08-14T16:12:51.680Z,30.32
2017-08-14T16:15:16.553Z,30.76
2017-08-14T16:17:41.436Z,30.63
2017-08-14T16:20:06.271Z,30.98
2017-08-14T16:22:16.930Z,31.15
2017-08-14T16:24:41.890Z,31.05
2017-08-14T16:27:06.795Z,31.14
2017-08-14T16:29:23.219Z,30.99
2017-08-14T16:31:48.153Z,31.08
2017-08-14T16:34:13.079Z,30.99
2017-08-14T16:36:37.929Z,30.93
2017-08-14T16:39:03.817Z,30.86
2017-08-14T16:41:28.836Z,30.8
2017-08-14T16:43:53.824Z,30.95
2017-08-14T16:46:18.711Z,31.02
2017-08-14T16:48:43.727Z,31.23
2017-08-14T16:51:08.734Z,31.13
2017-08-14T16:53:34.589Z,31.39
2017-08-14T16:56:01.814Z,31.2
2017-08-14T16:58:26.505Z,31.26
2017-08-14T17:00:51.505Z,31.1
2017-08-14T17:03:16.520Z,31.29
2017-08-14T17:05:10.145Z,31.32
2017-08-14T17:07:26.625Z,31.45
2017-08-14T17:09:51.559Z,31.57
2017-08-14T17:12:16.504Z,31.41
2017-08-14T17:14:27.191Z,31.47
2017-08-14T17:16:52.165Z,31.39
2017-08-14T17:19:17.121Z,31.17
2017-08-14T17:21:19.236Z,31.2
2017-08-14T17:23:44.196Z,30.7
2017-08-14T17:26:09.116Z,30.58
2017-08-14T17:28:34.014Z,30.52
2017-08-14T17:30:44.712Z,30.7
2017-08-14T17:33:09.679Z,30.29
2017-08-14T17:35:34.582Z,30.02
2017-08-14T17:37:59.472Z,30.21
2017-08-14T17:40:25.335Z,30.02
2017-08-14T17:42:50.547Z,30.1
2017-08-14T17:45:15.475Z,29.94
2017-08-14T17:47:42.524Z,30.17
2017-08-14T17:50:07.324Z,30.24
2017-08-14T17:52:32.335Z,30.24
2017-08-14T17:54:57.283Z,29.86
2017-08-14T17:57:22.098Z,29.83
2017-08-14T17:59:47.069Z,29.83
2017-08-14T18:02:13.320Z,29.71
2017-08-14T18:04:31.780Z,29.79
2017-08-14T18:06:56.602Z,29.76
2017-08-14T18:09:21.486Z,29.53
2017-08-14T18:11:32.120Z,29.4
2017-08-14T18:13:56.993Z,29.42
2017-08-14T18:16:21.757Z,29.46
2017-08-14T18:18:46.591Z,29.61
2017-08-14T18:21:11.263Z,29.55
2017-08-14T18:23:36.175Z,29.44
2017-08-14T18:25:52.465Z,29.47
2017-08-14T18:28:17.163Z,29.49
2017-08-14T18:30:41.947Z,29.49
2017-08-14T18:33:06.685Z,29.52
2017-08-14T18:35:31.544Z,29.31
2017-08-14T18:37:56.349Z,29.09
2017-08-14T18:40:21.163Z,29.28
2017-08-14T18:42:45.844Z,29.18
2017-08-14T18:45:10.588Z,29.16
2017-08-14T18:47:35.358Z,29.18
2017-08-14T18:50:00.134Z,29.09
2017-08-14T18:52:24.852Z,29.1
2017-08-14T18:54:49.656Z,29
2017-08-14T18:57:14.447Z,28.92
2017-08-14T18:59:39.196Z,28.8
2017-08-14T19:02:14.672Z,28.56
2017-08-14T19:04:40.745Z,28.59
2017-08-14T19:07:07.229Z,28.46
2017-08-14T19:09:32.746Z,28.5
2017-08-14T19:11:56.622Z,28.43
2017-08-14T19:14:21.375Z,28.41
2017-08-14T19:16:46.248Z,28.27
2017-08-14T19:19:11.051Z,28.18
